createdAt,value
2022-09-30T00:00:33.734Z,88
2022-09-30T00:01:36.844Z,87.9
2022-09-30T00:02:40.183Z,87.7
2022-09-30T00:03:43.564Z,87.8
2022-09-30T00:04:46.771Z,87.6
2022-09-30T00:05:50.548Z,87.5
2022-09-30T00:06:53.343Z,88
2022-09-30T00:07:56.726Z,88
2022-09-30T00:09:00.149Z,88
2022-09-30T00:10:03.631Z,88
2022-09-30T00:11:06.717Z,87.9
2022-09-30T00:12:09.891Z,87.8
2022-09-30T00:13:12.767Z,87.9
2022-09-30T00:14:15.213Z,87.8
2022-09-30T00:15:18.676Z,87.7
2022-09-30T00:16:22.198Z,87.9
2022-09-30T00:17:25.425Z,88.1
2022-09-30T00:18:28.299Z,88.2
2022-09-30T00:19:31.474Z,88.3
2022-09-30T00:20:34.377Z,88
2022-09-30T00:21:38.079Z,88.2
2022-09-30T00:22:41.512Z,88.2
2022-09-30T00:23:44.403Z,88.3
2022-09-30T00:24:46.933Z,88.3
2022-09-30T00:25:50.785Z,88.2
2022-09-30T00:26:54.525Z,88.5
2022-09-30T00:27:57.967Z,88.4
2022-09-30T00:29:01.046Z,88.6
2022-09-30T00:30:03.929Z,88.7
2022-09-30T00:31:06.953Z,88.6
2022-09-30T00:32:09.974Z,88.6
2022-09-30T00:33:13.042Z,88.6
2022-09-30T00:34:15.767Z,88.8
2022-09-30T00:35:23.833Z,88.7
2022-09-30T00:36:27.107Z,88.7
2022-09-30T00:37:29.992Z,88.6
2022-09-30T00:38:32.600Z,88.7
2022-09-30T00:39:35.317Z,88.8
2022-09-30T00:40:38.396Z,88.8
2022-09-30T00:41:41.995Z,88.9
2022-09-30T00:42:45.481Z,89.1
2022-09-30T00:43:48.901Z,89.1
2022-09-30T00:44:52.425Z,89.3
2022-09-30T00:45:55.604Z,89.4
2022-09-30T00:46:58.625Z,89.5
2022-09-30T00:48:02.281Z,89.2
2022-09-30T00:49:05.362Z,89.3
2022-09-30T00:50:08.514Z,89.6
2022-09-30T00:51:11.852Z,89.9
2022-09-30T00:52:14.571Z,89.9
2022-09-30T00:53:17.843Z,89.8
2022-09-30T00:54:20.910Z,89.9
2022-09-30T00:55:23.143Z,89.8
2022-09-30T00:56:25.858Z,89.8
2022-09-30T00:57:29.294Z,89.7
2022-09-30T00:58:33.305Z,89.7
2022-09-30T00:59:36.299Z,89.6
2022-09-30T01:00:39.733Z,89.6
2022-09-30T01:01:43.569Z,89.9
2022-09-30T01:02:46.822Z,89.9
2022-09-30T01:03:49.906Z,89.7
2022-09-30T01:04:52.695Z,89.6
2022-09-30T01:05:55.915Z,89.7
2022-09-30T01:06:59.090Z,89.7
2022-09-30T01:08:02.513Z,89.9
2022-09-30T01:09:06.037Z,89.9
2022-09-30T01:10:08.501Z,89.4
2022-09-30T01:11:11.496Z,89.2
2022-09-30T01:12:14.204Z,89.3
2022-09-30T01:13:17.435Z,89.4
2022-09-30T01:14:21.452Z,89.3
2022-09-30T01:15:24.131Z,89.1
2022-09-30T01:16:27.498Z,89
2022-09-30T01:17:31.148Z,89
2022-09-30T01:18:34.855Z,88.9
2022-09-30T01:19:37.869Z,88.6
2022-09-30T01:20:41.325Z,88.7
2022-09-30T01:21:43.492Z,88.5
2022-09-30T01:22:46.034Z,88.7
2022-09-30T01:23:48.903Z,88.5
2022-09-30T01:24:52.351Z,88.3
2022-09-30T01:25:55.561Z,88.1
2022-09-30T01:26:58.371Z,87.9
2022-09-30T01:28:01.427Z,88
2022-09-30T01:29:05.368Z,88.2
2022-09-30T01:30:09.375Z,88
2022-09-30T01:31:13.000Z,88.1
2022-09-30T01:32:15.603Z,88.1
2022-09-30T01:33:18.666Z,88.2
2022-09-30T01:34:22.205Z,88.2
2022-09-30T01:35:25.291Z,88.2
2022-09-30T01:36:28.109Z,88
2022-09-30T01:37:31.344Z,87.9
2022-09-30T01:38:33.783Z,87.9
2022-09-30T01:39:36.107Z,87.9
2022-09-30T01:40:39.725Z,88.1
2022-09-30T01:41:42.044Z,88.1
2022-09-30T01:42:44.924Z,88.1
2022-09-30T01:43:47.988Z,88.3
2022-09-30T01:44:51.233Z,88.2
2022-09-30T01:45:54.678Z,87.9
2022-09-30T01:46:57.285Z,88
2022-09-30T01:48:00.230Z,88.1
2022-09-30T01:49:03.121Z,88.2
2022-09-30T01:50:06.496Z,88.2
2022-09-30T01:51:09.858Z,88.3
2022-09-30T01:52:13.211Z,88.4
2022-09-30T01:53:16.366Z,88.6
2022-09-30T01:54:19.827Z,88.4
2022-09-30T01:55:23.532Z,88.4
2022-09-30T01:56:26.375Z,88.6
2022-09-30T01:57:29.805Z,88.8
2022-09-30T01:58:32.320Z,88.6
2022-09-30T01:59:35.032Z,88.8
2022-09-30T02:00:38.757Z,89.2
2022-09-30T02:01:43.237Z,88.8
2022-09-30T02:02:45.953Z,88.8
2022-09-30T02:03:49.643Z,88.7
2022-09-30T02:04:52.803Z,88.7
2022-09-30T02:05:56.530Z,88.7
2022-09-30T02:06:58.942Z,88.7
2022-09-30T02:08:01.766Z,88.5
2022-09-30T02:09:05.795Z,88.7
2022-09-30T02:10:08.635Z,89
2022-09-30T02:11:11.784Z,89
2022-09-30T02:12:15.019Z,88.9
2022-09-30T02:13:18.364Z,89.3
2022-09-30T02:14:21.354Z,89.2
2022-09-30T02:15:23.871Z,89.1
2022-09-30T02:16:27.579Z,88.9
2022-09-30T02:17:31.233Z,88.8
2022-09-30T02:18:33.394Z,89
2022-09-30T02:19:36.833Z,88.9
2022-09-30T02:20:40.269Z,89
2022-09-30T02:21:43.448Z,88.6
2022-09-30T02:22:46.265Z,88.9
2022-09-30T02:23:49.341Z,89.1
2022-09-30T02:24:52.397Z,88.9
2022-09-30T02:25:54.996Z,89.2
2022-09-30T02:26:57.274Z,89.4
2022-09-30T02:28:00.082Z,89.6
2022-09-30T02:29:03.437Z,89.6
2022-09-30T02:30:05.976Z,89.6
2022-09-30T02:31:09.431Z,89.6
2022-09-30T02:32:13.185Z,89.7
2022-09-30T02:33:17.004Z,89.5
2022-09-30T02:34:20.002Z,89.6
2022-09-30T02:35:23.358Z,89.4
2022-09-30T02:36:26.497Z,89.5
2022-09-30T02:37:29.774Z,89.5
2022-09-30T02:38:32.968Z,89.5
2022-09-30T02:39:35.403Z,89.3
2022-09-30T02:40:38.571Z,89.7
2022-09-30T02:41:40.801Z,89.6
2022-09-30T02:42:44.256Z,89.5
2022-09-30T02:43:47.750Z,89.3
2022-09-30T02:44:50.621Z,89.3
2022-09-30T02:45:52.847Z,89.5
2022-09-30T02:46:55.859Z,89.4
2022-09-30T02:47:59.585Z,89.6
2022-09-30T02:49:03.035Z,89.4
2022-09-30T02:50:06.194Z,89.4
2022-09-30T02:51:09.369Z,89.2
2022-09-30T02:52:12.820Z,89.1
2022-09-30T02:53:15.622Z,89.3
2022-09-30T02:54:19.055Z,89.3
2022-09-30T02:55:22.159Z,89.1
2022-09-30T02:56:25.341Z,89.1
2022-09-30T02:57:28.419Z,89.2
2022-09-30T02:58:31.229Z,89
2022-09-30T02:59:34.572Z,88.7
2022-09-30T03:00:38.268Z,88.7
2022-09-30T03:01:41.600Z,88.7
2022-09-30T03:02:44.941Z,88.7
2022-09-30T03:03:48.530Z,88.7
2022-09-30T03:04:52.081Z,88.7
2022-09-30T03:05:55.318Z,88.7
2022-09-30T03:06:58.044Z,89
2022-09-30T03:08:01.036Z,89.2
2022-09-30T03:09:04.686Z,89.2
2022-09-30T03:10:07.449Z,89.2
2022-09-30T03:11:10.445Z,89.2
2022-09-30T03:12:13.820Z,89.4
2022-09-30T03:13:16.966Z,89.4
2022-09-30T03:14:20.039Z,89.4
2022-09-30T03:15:22.564Z,89.2
2022-09-30T03:16:25.915Z,89.3
2022-09-30T03:17:29.093Z,89.3
2022-09-30T03:18:32.542Z,89.3
2022-09-30T03:19:35.708Z,89.3
2022-09-30T03:20:39.180Z,89.2
2022-09-30T03:21:41.894Z,89
2022-09-30T03:22:45.548Z,88.9
2022-09-30T03:23:48.610Z,89
2022-09-30T03:24:51.139Z,88.8
2022-09-30T03:25:54.578Z,88.8
2022-09-30T03:26:57.940Z,88.8
2022-09-30T03:28:00.501Z,88.8
2022-09-30T03:29:03.729Z,89
2022-09-30T03:30:06.526Z,89.1
2022-09-30T03:31:10.296Z,89.1
2022-09-30T03:32:13.898Z,89.3
2022-09-30T03:33:16.615Z,89.6
2022-09-30T03:34:19.300Z,89.3
2022-09-30T03:35:22.131Z,89.5
2022-09-30T03:36:25.323Z,89.5
2022-09-30T03:37:27.925Z,89.5
2022-09-30T03:38:30.528Z,89.3
2022-09-30T03:39:33.791Z,89.3
2022-09-30T03:40:37.144Z,89.4
2022-09-30T03:41:40.270Z,89.3
2022-09-30T03:42:42.860Z,89.2
2022-09-30T03:43:45.574Z,89.5
2022-09-30T03:44:48.563Z,89.3
2022-09-30T03:45:51.666Z,88.9
2022-09-30T03:46:55.681Z,88.8
2022-09-30T03:47:58.323Z,89
2022-09-30T03:49:01.033Z,88.9
2022-09-30T03:50:03.470Z,89
2022-09-30T03:51:07.011Z,89.1
2022-09-30T03:52:10.590Z,88.9
2022-09-30T03:53:14.106Z,89.1
2022-09-30T03:54:17.104Z,89.1
2022-09-30T03:55:19.895Z,89.2
2022-09-30T03:56:22.602Z,89.2
2022-09-30T03:57:25.792Z,89
2022-09-30T03:58:28.578Z,88.9
2022-09-30T03:59:31.466Z,89
2022-09-30T04:00:34.285Z,89
2022-09-30T04:01:37.212Z,89
2022-09-30T04:02:40.318Z,88.8
2022-09-30T04:03:43.764Z,89.1
2022-09-30T04:04:47.190Z,89.1
2022-09-30T04:05:50.615Z,88.8
2022-09-30T04:06:54.458Z,88.7
2022-09-30T04:07:58.006Z,88.7
2022-09-30T04:09:01.915Z,88.5
2022-09-30T04:10:05.462Z,88.3
2022-09-30T04:11:08.605Z,88.3
2022-09-30T04:12:11.750Z,88.5
2022-09-30T04:13:14.916Z,88.6
2022-09-30T04:14:18.260Z,88.4
2022-09-30T04:15:20.785Z,88.3
2022-09-30T04:16:23.906Z,88.2
2022-09-30T04:17:27.448Z,88.1
2022-09-30T04:18:30.054Z,88
2022-09-30T04:19:33.473Z,88.2
2022-09-30T04:20:36.180Z,88.2
2022-09-30T04:21:38.931Z,88.3
2022-09-30T04:22:42.553Z,88.5
2022-09-30T04:23:45.846Z,88.6
2022-09-30T04:24:48.629Z,88.9
2022-09-30T04:25:51.582Z,89
2022-09-30T04:26:54.948Z,89
2022-09-30T04:27:57.842Z,88.9
2022-09-30T04:29:01.219Z,89
2022-09-30T04:30:03.938Z,88.9
2022-09-30T04:31:07.179Z,88.6
2022-09-30T04:32:10.384Z,88.8
2022-09-30T04:33:12.853Z,88.9
2022-09-30T04:34:15.917Z,88.7
2022-09-30T04:35:18.517Z,88.8
2022-09-30T04:36:21.406Z,88.7
2022-09-30T04:37:24.276Z,89
2022-09-30T04:38:27.809Z,89
2022-09-30T04:39:31.542Z,88.9
2022-09-30T04:40:34.612Z,88.9
2022-09-30T04:41:37.769Z,88.8
2022-09-30T04:42:40.950Z,88.7
2022-09-30T04:43:43.470Z,88.7
2022-09-30T04:44:46.550Z,89
2022-09-30T04:45:49.121Z,88.9
2022-09-30T04:46:52.648Z,88.8
2022-09-30T04:47:55.603Z,88.9
2022-09-30T04:48:58.956Z,89
2022-09-30T04:50:01.202Z,88.9
2022-09-30T04:51:04.026Z,88.9
2022-09-30T04:52:07.395Z,88.9
2022-09-30T04:53:09.915Z,88.8
2022-09-30T04:54:13.746Z,88.9
2022-09-30T04:55:17.232Z,88.8
2022-09-30T04:56:20.033Z,88.9
2022-09-30T04:57:22.935Z,88.9
2022-09-30T04:58:25.937Z,88.8
2022-09-30T04:59:28.494Z,88.8
2022-09-30T05:00:32.184Z,88.9
2022-09-30T05:01:35.399Z,89.3
2022-09-30T05:02:38.644Z,89.7
2022-09-30T05:03:41.239Z,89.7
2022-09-30T05:04:44.758Z,89.8
2022-09-30T05:05:47.907Z,89.8
2022-09-30T05:06:50.509Z,89.5
2022-09-30T05:07:53.645Z,89.4
2022-09-30T05:08:57.188Z,89.2
2022-09-30T05:10:01.144Z,89.1
2022-09-30T05:11:04.356Z,89.1
2022-09-30T05:12:06.948Z,89.2
2022-09-30T05:13:10.018Z,89.5
2022-09-30T05:14:12.807Z,89.5
2022-09-30T05:15:15.645Z,89.6
2022-09-30T05:16:19.100Z,89.6
2022-09-30T05:17:21.850Z,89.7
2022-09-30T05:18:24.646Z,89.8
2022-09-30T05:19:27.827Z,89.7
2022-09-30T05:20:30.694Z,89.7
2022-09-30T05:21:33.207Z,89.6
2022-09-30T05:22:36.293Z,89.6
2022-09-30T05:23:39.485Z,89.2
2022-09-30T05:24:43.136Z,89.1
2022-09-30T05:25:46.969Z,89.4
2022-09-30T05:26:51.081Z,89.5
2022-09-30T05:27:54.534Z,89.5
2022-09-30T05:28:57.125Z,89.7
2022-09-30T05:29:59.648Z,89.6
2022-09-30T05:31:02.753Z,89.7
2022-09-30T05:32:05.932Z,90.1
2022-09-30T05:33:09.625Z,90.1
2022-09-30T05:34:12.705Z,90.2
2022-09-30T05:35:15.678Z,90.2
2022-09-30T05:36:19.300Z,90.4
2022-09-30T05:37:22.720Z,90.2
2022-09-30T05:38:25.229Z,90.3
2022-09-30T05:39:28.517Z,90.4
2022-09-30T05:40:31.939Z,90.3
2022-09-30T05:41:35.777Z,90.3
2022-09-30T05:42:39.687Z,90.5
2022-09-30T05:43:43.416Z,90.5
2022-09-30T05:44:45.956Z,90.4
2022-09-30T05:45:48.831Z,90.3
2022-09-30T05:46:51.702Z,90.1
2022-09-30T05:47:54.666Z,90.1
2022-09-30T05:48:57.725Z,89.9
2022-09-30T05:50:00.182Z,89.6
2022-09-30T05:51:03.694Z,89.7
2022-09-30T05:52:06.491Z,89.5
2022-09-30T05:53:10.271Z,89.5
2022-09-30T05:54:13.970Z,89.4
2022-09-30T05:55:17.146Z,89.4
2022-09-30T05:56:20.421Z,89.3
2022-09-30T05:57:23.673Z,89.2
2022-09-30T05:58:27.142Z,89.3
2022-09-30T05:59:30.143Z,89.4
2022-09-30T06:00:32.588Z,89.6
2022-09-30T06:01:36.261Z,89.6
2022-09-30T06:02:40.189Z,89.4
2022-09-30T06:03:43.381Z,89.3
2022-09-30T06:04:45.893Z,88.9
2022-09-30T06:05:49.048Z,88.8
2022-09-30T06:06:52.393Z,88.6
2022-09-30T06:07:55.548Z,88.7
2022-09-30T06:08:58.872Z,88.5
2022-09-30T06:10:01.885Z,88.4
2022-09-30T06:11:05.349Z,88.5
2022-09-30T06:12:08.807Z,88.4
2022-09-30T06:13:11.937Z,88.1
2022-09-30T06:14:15.716Z,88.2
2022-09-30T06:15:18.242Z,88.5
2022-09-30T06:16:21.337Z,88.5
2022-09-30T06:17:24.611Z,88.8
2022-09-30T06:18:27.589Z,89.1
2022-09-30T06:19:30.947Z,88.5
2022-09-30T06:20:33.924Z,88.6
2022-09-30T06:21:36.916Z,88.9
2022-09-30T06:22:39.321Z,88.8
2022-09-30T06:23:42.671Z,89.3
2022-09-30T06:24:45.860Z,88.9
2022-09-30T06:25:48.646Z,88.8
2022-09-30T06:26:51.639Z,88.5
2022-09-30T06:27:54.493Z,88.5
2022-09-30T06:28:57.954Z,88.3
2022-09-30T06:30:02.065Z,88.3
2022-09-30T06:31:05.128Z,88.2
2022-09-30T06:32:08.576Z,88.4
2022-09-30T06:33:11.444Z,88.6
2022-09-30T06:34:14.439Z,88.7
2022-09-30T06:35:18.309Z,88.7
2022-09-30T06:36:21.777Z,88.8
2022-09-30T06:37:24.541Z,88.8
2022-09-30T06:38:27.333Z,88.7
2022-09-30T06:39:30.928Z,88.5
2022-09-30T06:40:34.192Z,88.5
2022-09-30T06:41:38.198Z,88.9
2022-09-30T06:42:41.080Z,89
2022-09-30T06:44:11.926Z,88.8
2022-09-30T06:45:33.946Z,89.2
2022-09-30T06:46:54.980Z,89
2022-09-30T06:48:02.532Z,89
2022-09-30T06:49:23.106Z,89.1
2022-09-30T06:50:27.779Z,89.1
2022-09-30T06:51:31.602Z,88.9
2022-09-30T06:52:34.665Z,88.7
2022-09-30T06:53:37.104Z,88.9
2022-09-30T06:54:40.168Z,88.6
2022-09-30T06:55:42.752Z,88.3
2022-09-30T06:56:45.535Z,88.2
2022-09-30T06:57:48.617Z,88.4
2022-09-30T06:58:51.488Z,88.3
2022-09-30T06:59:54.871Z,88.3
2022-09-30T07:00:59.354Z,88.1
2022-09-30T07:02:03.468Z,88
2022-09-30T07:03:07.002Z,88
2022-09-30T07:04:10.075Z,88
2022-09-30T07:05:12.661Z,88.2
2022-09-30T07:06:15.821Z,88.3
2022-09-30T07:07:18.251Z,88.4
2022-09-30T07:08:21.332Z,88.5
2022-09-30T07:09:25.626Z,88.3
2022-09-30T07:10:29.194Z,88.2
2022-09-30T07:11:31.637Z,88.3
2022-09-30T07:12:34.703Z,88.4
2022-09-30T07:13:37.777Z,88.5
2022-09-30T07:14:41.061Z,88.4
2022-09-30T07:15:44.155Z,88
2022-09-30T07:16:48.645Z,87.9
2022-09-30T07:17:52.563Z,88.2
2022-09-30T07:18:56.007Z,88.2
2022-09-30T07:19:58.796Z,87.6
2022-09-30T07:21:01.593Z,87.6
2022-09-30T07:22:04.142Z,87.7
2022-09-30T07:23:07.155Z,87.7
2022-09-30T07:24:10.159Z,87.8
2022-09-30T07:25:13.609Z,87.7
2022-09-30T07:26:16.754Z,87.7
2022-09-30T07:27:19.904Z,88
2022-09-30T07:28:23.115Z,87.7
2022-09-30T07:29:26.350Z,87.7
2022-09-30T07:30:29.911Z,87.6
2022-09-30T07:31:37.336Z,87.7
2022-09-30T07:32:41.775Z,87.7
2022-09-30T07:33:44.639Z,87.9
2022-09-30T07:34:47.980Z,87.8
2022-09-30T07:35:51.709Z,87.8
2022-09-30T07:36:54.505Z,87.7
2022-09-30T07:37:57.870Z,87.5
2022-09-30T07:39:01.097Z,87.3
2022-09-30T07:40:03.627Z,87.3
2022-09-30T07:41:07.110Z,87.3
2022-09-30T07:42:10.213Z,87.2
2022-09-30T07:43:12.730Z,87.1
2022-09-30T07:44:16.519Z,87.1
2022-09-30T07:45:19.606Z,86.7
2022-09-30T07:46:22.609Z,86.5
2022-09-30T07:47:25.947Z,87.1
2022-09-30T07:48:30.059Z,87.2
2022-09-30T07:49:32.030Z,87
2022-09-30T07:50:34.662Z,86.7
2022-09-30T07:51:37.862Z,86.1
2022-09-30T07:52:41.220Z,86
2022-09-30T07:53:44.325Z,85.9
2022-09-30T07:54:52.013Z,85.9
2022-09-30T07:55:55.391Z,86.5
2022-09-30T07:57:12.914Z,86.2
2022-09-30T07:58:16.837Z,85.9
2022-09-30T07:59:19.730Z,86
2022-09-30T08:00:53.215Z,85.9
2022-09-30T08:01:57.302Z,85.5
2022-09-30T08:02:59.955Z,85.6
2022-09-30T08:04:04.068Z,85.2
2022-09-30T08:05:07.485Z,85.4
2022-09-30T08:06:10.215Z,85.4
2022-09-30T08:07:13.087Z,85.2
2022-09-30T08:08:15.973Z,85.3
2022-09-30T08:09:19.672Z,85.4
2022-09-30T08:10:22.480Z,85.5
2022-09-30T08:11:25.375Z,85.4
2022-09-30T08:12:28.519Z,85.1
2022-09-30T08:13:32.044Z,85.1
2022-09-30T08:14:35.390Z,85
2022-09-30T08:15:39.216Z,85
2022-09-30T08:16:42.901Z,84.9
2022-09-30T08:17:45.211Z,84.8
2022-09-30T08:18:48.666Z,84.6
2022-09-30T08:19:52.758Z,84.5
2022-09-30T08:20:55.715Z,84.2
2022-09-30T08:22:00.044Z,84.7
2022-09-30T08:23:03.738Z,84.6
2022-09-30T08:24:06.841Z,84.3
2022-09-30T08:25:09.667Z,84.1
2022-09-30T08:26:12.842Z,83.9
2022-09-30T08:27:16.172Z,83.7
2022-09-30T08:28:19.122Z,83.7
2022-09-30T08:30:03.685Z,83.6
2022-09-30T08:31:08.480Z,83.5
2022-09-30T08:32:11.984Z,83.3
2022-09-30T08:33:15.318Z,83
2022-09-30T08:34:19.384Z,82.9
2022-09-30T08:35:23.571Z,82.8
2022-09-30T08:36:27.590Z,82.7
2022-09-30T08:37:30.555Z,82.6
2022-09-30T08:38:33.272Z,82.7
2022-09-30T08:39:35.882Z,83.2
2022-09-30T08:40:38.485Z,82.7
2022-09-30T08:41:41.366Z,82.6
2022-09-30T08:42:58.381Z,82.5
2022-09-30T08:44:02.390Z,82.3
2022-09-30T08:45:05.382Z,81.9
2022-09-30T08:46:08.220Z,81.5
2022-09-30T08:47:11.823Z,81
2022-09-30T08:49:19.720Z,80.2
2022-09-30T08:50:22.387Z,80.4
2022-09-30T08:51:26.569Z,79.8
2022-09-30T08:52:50.350Z,78.9
2022-09-30T08:53:53.379Z,78.3
2022-09-30T08:54:56.754Z,78.4
2022-09-30T08:55:59.786Z,78.8
2022-09-30T08:57:03.156Z,77.6
2022-09-30T08:58:06.222Z,77.7
2022-09-30T08:59:09.213Z,77
2022-09-30T09:00:12.124Z,76.8
2022-09-30T09:01:14.963Z,76.5
2022-09-30T09:02:18.992Z,75.8
2022-09-30T09:03:22.617Z,75.5
2022-09-30T09:04:26.025Z,74.7
2022-09-30T09:05:29.057Z,75.3
2022-09-30T09:06:32.591Z,74.7
2022-09-30T09:07:35.666Z,74.6
2022-09-30T09:08:39.014Z,74.2
2022-09-30T09:09:41.836Z,73.4
2022-09-30T09:10:44.909Z,73.1
2022-09-30T09:11:47.795Z,72.2
2022-09-30T09:12:50.122Z,73
2022-09-30T09:13:53.745Z,73.1
2022-09-30T09:14:56.558Z,73.2
2022-09-30T09:15:59.363Z,72.9
2022-09-30T09:17:02.881Z,73.7
2022-09-30T09:18:26.067Z,70.7
2022-09-30T09:19:28.866Z,70.3
2022-09-30T09:20:31.614Z,70.1
2022-09-30T09:21:35.022Z,70.8
2022-09-30T09:22:38.456Z,71
2022-09-30T09:23:41.454Z,71.2
2022-09-30T09:24:45.159Z,69
2022-09-30T09:25:48.536Z,68.5
2022-09-30T09:26:52.627Z,67.3
2022-09-30T09:27:56.387Z,67.6
2022-09-30T09:28:59.410Z,67.8
2022-09-30T09:30:02.592Z,68.6
2022-09-30T09:31:05.945Z,67.5
2022-09-30T09:32:09.407Z,67.8
2022-09-30T09:33:12.981Z,67
2022-09-30T09:34:15.774Z,68
2022-09-30T09:35:18.955Z,66.6
2022-09-30T09:36:21.774Z,66.5
2022-09-30T09:37:25.541Z,64.3
2022-09-30T09:38:29.270Z,64.9
2022-09-30T09:39:32.172Z,64.8
2022-09-30T09:40:35.132Z,65.2
2022-09-30T09:41:38.780Z,64.6
2022-09-30T09:42:41.818Z,64.4
2022-09-30T09:43:45.031Z,63.5
2022-09-30T09:44:48.025Z,63.2
2022-09-30T09:45:51.472Z,64.3
2022-09-30T09:46:55.052Z,64.2
2022-09-30T09:47:58.225Z,64
2022-09-30T09:49:01.472Z,63.6
2022-09-30T09:50:05.187Z,63.1
2022-09-30T09:51:07.913Z,62
2022-09-30T09:52:11.667Z,61.7
2022-09-30T09:53:15.159Z,60.6
2022-09-30T09:54:18.803Z,61.6
2022-09-30T09:55:21.516Z,61.5
2022-09-30T09:56:32.768Z,59.9
2022-09-30T09:57:35.927Z,61
2022-09-30T09:58:39.144Z,61.9
2022-09-30T09:59:42.378Z,62.2
2022-09-30T10:00:46.248Z,61
2022-09-30T10:01:50.150Z,61
2022-09-30T10:02:52.971Z,60.6
2022-09-30T10:03:56.056Z,59.5
2022-09-30T10:04:59.521Z,59.5
2022-09-30T10:06:02.233Z,58.2
2022-09-30T10:07:06.001Z,57.8
2022-09-30T10:08:09.492Z,58.3
2022-09-30T10:09:13.306Z,58.7
2022-09-30T10:10:25.378Z,58.2
2022-09-30T10:11:27.794Z,57.1
2022-09-30T10:12:30.804Z,56.8
2022-09-30T10:13:33.123Z,56.9
2022-09-30T10:14:36.609Z,56.5
2022-09-30T10:15:39.950Z,56.4
2022-09-30T10:16:43.510Z,55.2
2022-09-30T10:17:46.675Z,56
2022-09-30T10:18:49.540Z,56.6
2022-09-30T10:19:52.612Z,55
2022-09-30T10:20:55.225Z,56.1
2022-09-30T10:21:58.930Z,56
2022-09-30T10:23:02.360Z,56.2
2022-09-30T10:24:04.977Z,56.9
2022-09-30T10:25:08.753Z,56.7
2022-09-30T10:26:12.598Z,55.2
2022-09-30T10:27:15.887Z,54.7
2022-09-30T10:28:19.361Z,55.2
2022-09-30T10:29:22.663Z,54.5
2022-09-30T10:30:26.395Z,54.9
2022-09-30T10:31:30.615Z,55.4
2022-09-30T10:32:34.111Z,53.6
2022-09-30T10:33:37.626Z,54.8
2022-09-30T10:34:40.082Z,54.7
2022-09-30T10:35:42.877Z,55.7
2022-09-30T10:36:46.608Z,57.3
2022-09-30T10:37:52.966Z,57.3
2022-09-30T10:38:56.317Z,55.1
2022-09-30T10:40:04.958Z,56.5
2022-09-30T10:41:08.887Z,58
2022-09-30T10:42:12.286Z,57.9
2022-09-30T10:43:15.511Z,58.6
2022-09-30T10:44:18.712Z,61
2022-09-30T10:45:21.234Z,60.9
2022-09-30T10:46:29.384Z,59.3
2022-09-30T10:47:38.571Z,58.3
2022-09-30T10:48:41.019Z,56.5
2022-09-30T10:49:43.816Z,56.6
2022-09-30T10:50:46.416Z,55.3
2022-09-30T10:51:48.847Z,54.6
2022-09-30T10:52:52.575Z,53.6
2022-09-30T10:53:55.393Z,53.3
2022-09-30T10:54:58.868Z,53.1
2022-09-30T10:56:02.629Z,52.5
2022-09-30T10:57:06.370Z,52.4
2022-09-30T10:58:09.495Z,51
2022-09-30T10:59:12.638Z,51.1
2022-09-30T11:00:15.502Z,50.2
2022-09-30T11:01:18.343Z,50.3
2022-09-30T11:02:22.727Z,49.4
2022-09-30T11:03:26.227Z,51.5
2022-09-30T11:04:29.152Z,52.6
2022-09-30T11:05:32.843Z,51.6
2022-09-30T11:06:36.006Z,51.4
2022-09-30T11:07:39.078Z,50.5
2022-09-30T11:08:42.172Z,51.6
2022-09-30T11:09:44.894Z,52
2022-09-30T11:10:48.076Z,52.3
2022-09-30T11:11:51.247Z,52.1
2022-09-30T11:12:55.051Z,51.9
2022-09-30T11:13:58.153Z,50.8
2022-09-30T11:15:01.208Z,49.7
2022-09-30T11:16:04.270Z,48.1
2022-09-30T11:17:07.549Z,50.5
2022-09-30T11:18:10.708Z,50.6
2022-09-30T11:19:14.125Z,52.7
2022-09-30T11:20:16.451Z,53.7
2022-09-30T11:21:19.807Z,53.9
2022-09-30T11:22:22.755Z,54.4
2022-09-30T11:23:25.626Z,54.9
2022-09-30T11:24:28.620Z,56.1
2022-09-30T11:25:31.771Z,57.8
2022-09-30T11:26:34.842Z,57.7
2022-09-30T11:27:37.928Z,57.3
2022-09-30T11:28:41.689Z,59
2022-09-30T11:29:45.220Z,57.8
2022-09-30T11:30:48.464Z,58.3
2022-09-30T11:31:52.280Z,58.2
2022-09-30T11:32:55.602Z,58.9
2022-09-30T11:33:59.343Z,61.3
2022-09-30T11:35:02.447Z,59.4
2022-09-30T11:36:05.682Z,58.5
2022-09-30T11:37:08.759Z,58.2
2022-09-30T11:38:12.837Z,58.5
2022-09-30T11:39:15.548Z,59
2022-09-30T11:40:18.337Z,59.6
2022-09-30T11:41:21.406Z,59.6
2022-09-30T11:42:24.849Z,60.1
2022-09-30T11:43:28.298Z,59.7
2022-09-30T11:44:31.876Z,60.4
2022-09-30T11:45:35.662Z,59.9
2022-09-30T11:46:39.536Z,62.5
2022-09-30T11:47:42.876Z,63.1
2022-09-30T11:48:46.217Z,62.5
2022-09-30T11:49:49.797Z,61.5
2022-09-30T11:50:53.066Z,61.9
2022-09-30T11:51:55.939Z,61.7
2022-09-30T11:52:59.094Z,61.2
2022-09-30T11:54:02.447Z,61.9
2022-09-30T11:55:05.267Z,61.9
2022-09-30T11:56:08.528Z,61.4
2022-09-30T11:57:11.900Z,59.2
2022-09-30T11:58:43.226Z,57.1
2022-09-30T11:59:46.751Z,57.7
2022-09-30T12:00:50.243Z,56.9
2022-09-30T12:01:53.846Z,55.8
2022-09-30T12:02:57.629Z,54.7
2022-09-30T12:04:00.729Z,54.4
2022-09-30T12:05:04.118Z,53.5
2022-09-30T12:06:07.404Z,52.7
2022-09-30T12:07:10.470Z,53.2
2022-09-30T12:08:13.553Z,52.9
2022-09-30T12:09:16.383Z,53.2
2022-09-30T12:10:20.080Z,52.2
2022-09-30T12:11:23.462Z,52.9
2022-09-30T12:12:26.910Z,52.3
2022-09-30T12:13:29.507Z,51.4
2022-09-30T12:14:32.804Z,50.6
2022-09-30T12:15:36.654Z,49.3
2022-09-30T12:16:40.070Z,50.3
2022-09-30T12:17:43.237Z,51
2022-09-30T12:18:46.586Z,51.3
2022-09-30T12:19:49.498Z,51.4
2022-09-30T12:20:52.507Z,48.3
2022-09-30T12:21:55.664Z,46.2
2022-09-30T12:22:59.113Z,46.3
2022-09-30T12:24:02.178Z,44.3
2022-09-30T12:25:05.079Z,43.9
2022-09-30T12:26:08.605Z,43.4
2022-09-30T12:27:11.682Z,41.6
2022-09-30T12:28:15.931Z,44.3
2022-09-30T12:29:19.552Z,47.4
2022-09-30T12:30:23.246Z,45.5
2022-09-30T12:31:27.298Z,48.1
2022-09-30T12:32:30.847Z,49.6
2022-09-30T12:33:33.647Z,49.2
2022-09-30T12:34:36.818Z,50.2
2022-09-30T12:35:39.807Z,50.2
2022-09-30T12:36:43.008Z,50.6
2022-09-30T12:37:46.614Z,51.9
2022-09-30T12:38:49.412Z,51.9
2022-09-30T12:39:53.160Z,51.3
2022-09-30T12:40:56.337Z,51.6
2022-09-30T12:41:59.229Z,51.5
2022-09-30T12:43:02.041Z,51
2022-09-30T12:44:05.201Z,51.5
2022-09-30T12:45:08.585Z,50.8
2022-09-30T12:46:12.235Z,50.6
2022-09-30T12:47:16.273Z,51.6
2022-09-30T12:48:19.669Z,50.9
2022-09-30T12:49:22.928Z,51.1
2022-09-30T12:50:26.949Z,51.9
2022-09-30T12:51:29.558Z,51.3
2022-09-30T12:52:32.493Z,51.3
2022-09-30T12:53:36.499Z,52
2022-09-30T12:54:39.274Z,51
2022-09-30T12:55:41.992Z,50.4
2022-09-30T12:56:45.152Z,50
2022-09-30T12:57:48.521Z,50.5
2022-09-30T12:58:51.487Z,51.1
2022-09-30T12:59:54.908Z,51.9
2022-09-30T13:00:58.545Z,53.3
2022-09-30T13:02:02.423Z,53.3
2022-09-30T13:03:06.901Z,52.6
2022-09-30T13:04:10.450Z,52.5
2022-09-30T13:05:13.796Z,52.1
2022-09-30T13:06:16.512Z,52.2
2022-09-30T13:07:19.544Z,53
2022-09-30T13:08:26.744Z,50.3
2022-09-30T13:09:30.164Z,50.3
2022-09-30T13:10:33.533Z,51.1
2022-09-30T13:11:36.278Z,51.1
2022-09-30T13:12:39.640Z,51.5
2022-09-30T13:13:41.883Z,51.1
2022-09-30T13:14:44.767Z,51.1
2022-09-30T13:15:48.777Z,49.5
2022-09-30T13:16:51.894Z,49.8
2022-09-30T13:17:55.414Z,49.2
2022-09-30T13:18:59.481Z,50.3
2022-09-30T13:20:02.444Z,49.8
2022-09-30T13:21:04.987Z,49.2
2022-09-30T13:22:08.085Z,49.1
2022-09-30T13:23:11.501Z,51.2
2022-09-30T13:24:14.854Z,50.9
2022-09-30T13:25:18.022Z,51.7
2022-09-30T13:26:20.259Z,51.7
2022-09-30T13:27:23.688Z,52
2022-09-30T13:28:26.942Z,52
2022-09-30T13:29:30.815Z,52.8
2022-09-30T13:30:35.732Z,52
2022-09-30T13:31:39.470Z,52.7
2022-09-30T13:32:43.027Z,53.2
2022-09-30T13:33:45.576Z,53.4
2022-09-30T13:34:48.829Z,53.5
2022-09-30T13:35:52.660Z,53.6
2022-09-30T13:36:55.925Z,53.7
2022-09-30T13:37:59.347Z,54.8
2022-09-30T13:39:02.812Z,55
2022-09-30T13:40:06.257Z,54.3
2022-09-30T13:41:09.743Z,55.4
2022-09-30T13:42:12.545Z,53.8
2022-09-30T13:43:15.695Z,53.8
2022-09-30T13:44:18.578Z,52.4
2022-09-30T13:45:21.962Z,52
2022-09-30T13:46:25.379Z,52.6
2022-09-30T13:47:28.551Z,51.8
2022-09-30T13:48:31.631Z,51.5
2022-09-30T13:49:35.203Z,53.4
2022-09-30T13:50:38.938Z,53.1
2022-09-30T13:51:42.390Z,53.3
2022-09-30T13:52:45.458Z,53.3
2022-09-30T13:53:48.534Z,53.5
2022-09-30T13:54:51.246Z,54.3
2022-09-30T13:55:54.563Z,53.6
2022-09-30T13:56:57.736Z,53.3
2022-09-30T13:58:00.834Z,53.8
2022-09-30T13:59:03.911Z,54
2022-09-30T14:00:06.443Z,54.4
2022-09-30T14:01:10.110Z,55.4
2022-09-30T14:02:13.048Z,56
2022-09-30T14:03:16.337Z,55.8
2022-09-30T14:04:19.577Z,55.5
2022-09-30T14:05:22.415Z,55.2
2022-09-30T14:06:26.153Z,55.5
2022-09-30T14:07:29.346Z,54.8
2022-09-30T14:08:32.227Z,55.2
2022-09-30T14:09:35.424Z,55.5
2022-09-30T14:10:38.641Z,55.8
2022-09-30T14:11:42.034Z,56.1
2022-09-30T14:12:44.657Z,56.6
2022-09-30T14:13:47.443Z,57.1